sensor_id;sensor_type;location;lat;lon;timestamp;P1;durP1;ratioP1;P2;durP2;ratioP2
22468;SDS011;11401;50.792;4.352;2022-10-12T00:02:18;6.90;;;4.00;;
22468;SDS011;11401;50.792;4.352;2022-10-12T00:04:45;7.53;;;4.25;;
22468;SDS011;11401;50.792;4.352;2022-10-12T00:07:11;6.30;;;3.55;;
22468;SDS011;11401;50.792;4.352;2022-10-12T00:09:38;7.70;;;3.20;;
22468;SDS011;11401;50.792;4.352;2022-10-12T00:12:05;6.30;;;3.58;;
22468;SDS011;11401;50.792;4.352;2022-10-12T00:14:36;6.95;;;3.47;;
22468;SDS011;11401;50.792;4.352;2022-10-12T00:17:03;7.22;;;3.40;;
22468;SDS011;11401;50.792;4.352;2022-10-12T00:19:30;10.20;;;3.45;;
22468;SDS011;11401;50.792;4.352;2022-10-12T00:21:57;11.73;;;3.67;;
22468;SDS011;11401;50.792;4.352;2022-10-12T00:24:23;5.35;;;3.20;;
22468;SDS011;11401;50.792;4.352;2022-10-12T00:26:50;6.93;;;3.33;;
22468;SDS011;11401;50.792;4.352;2022-10-12T00:29:18;8.93;;;3.40;;
22468;SDS011;11401;50.792;4.352;2022-10-12T00:31:45;9.13;;;3.45;;
22468;SDS011;11401;50.792;4.352;2022-10-12T00:34:12;6.25;;;3.47;;
22468;SDS011;11401;50.792;4.352;2022-10-12T00:36:39;6.70;;;3.72;;
22468;SDS011;11401;50.792;4.352;2022-10-12T00:39:06;6.38;;;3.00;;
22468;SDS011;11401;50.792;4.352;2022-10-12T00:41:36;5.53;;;3.30;;
22468;SDS011;11401;50.792;4.352;2022-10-12T00:47:14;7.10;;;3.13;;
22468;SDS011;11401;50.792;4.352;2022-10-12T00:52:57;4.28;;;2.92;;
22468;SDS011;11401;50.792;4.352;2022-10-12T00:55:40;5.90;;;3.05;;
22468;SDS011;11401;50.792;4.352;2022-10-12T00:58:14;6.45;;;3.17;;
22468;SDS011;11401;50.792;4.352;2022-10-12T01:00:42;6.82;;;3.25;;
22468;SDS011;11401;50.792;4.352;2022-10-12T01:03:09;6.90;;;3.05;;
22468;SDS011;11401;50.792;4.352;2022-10-12T01:05:40;6.63;;;3.60;;
22468;SDS011;11401;50.792;4.352;2022-10-12T01:08:07;3.25;;;2.92;;
22468;SDS011;11401;50.792;4.352;2022-10-12T01:10:34;5.82;;;3.42;;
22468;SDS011;11401;50.792;4.352;2022-10-12T01:13:01;7.28;;;3.50;;
22468;SDS011;11401;50.792;4.352;2022-10-12T01:15:31;7.35;;;3.72;;
22468;SDS011;11401;50.792;4.352;2022-10-12T01:18:04;11.60;;;3.70;;
22468;SDS011;11401;50.792;4.352;2022-10-12T01:20:43;5.35;;;3.13;;
22468;SDS011;11401;50.792;4.352;2022-10-12T01:28:18;5.40;;;3.70;;
22468;SDS011;11401;50.792;4.352;2022-10-12T01:30:52;4.72;;;3.10;;
22468;SDS011;11401;50.792;4.352;2022-10-12T01:33:34;8.45;;;3.40;;
22468;SDS011;11401;50.792;4.352;2022-10-12T01:36:06;4.90;;;3.40;;
22468;SDS011;11401;50.792;4.352;2022-10-12T01:38:47;6.80;;;3.10;;
22468;SDS011;11401;50.792;4.352;2022-10-12T01:41:28;4.25;;;3.38;;
22468;SDS011;11401;50.792;4.352;2022-10-12T01:44:01;9.30;;;4.38;;
22468;SDS011;11401;50.792;4.352;2022-10-12T01:48:57;6.25;;;3.58;;
22468;SDS011;11401;50.792;4.352;2022-10-12T01:51:32;7.47;;;3.15;;
22468;SDS011;11401;50.792;4.352;2022-10-12T01:59:21;7.28;;;3.72;;
22468;SDS011;11401;50.792;4.352;2022-10-12T02:01:56;4.07;;;3.17;;
22468;SDS011;11401;50.792;4.352;2022-10-12T02:04:42;3.85;;;3.00;;
22468;SDS011;11401;50.792;4.352;2022-10-12T02:07:15;7.30;;;3.60;;
22468;SDS011;11401;50.792;4.352;2022-10-12T02:09:48;8.30;;;4.20;;
22468;SDS011;11401;50.792;4.352;2022-10-12T02:12:19;5.88;;;3.90;;
22468;SDS011;11401;50.792;4.352;2022-10-12T02:14:49;3.70;;;2.88;;
22468;SDS011;11401;50.792;4.352;2022-10-12T02:17:20;7.18;;;3.53;;
22468;SDS011;11401;50.792;4.352;2022-10-12T02:19:54;7.75;;;4.00;;
22468;SDS011;11401;50.792;4.352;2022-10-12T02:22:24;4.20;;;3.28;;
22468;SDS011;11401;50.792;4.352;2022-10-12T02:25:00;5.40;;;3.25;;
22468;SDS011;11401;50.792;4.352;2022-10-12T02:27:29;6.50;;;3.72;;
22468;SDS011;11401;50.792;4.352;2022-10-12T02:30:00;6.95;;;3.83;;
22468;SDS011;11401;50.792;4.352;2022-10-12T02:35:28;5.65;;;3.50;;
22468;SDS011;11401;50.792;4.352;2022-10-12T02:38:06;7.03;;;3.40;;
22468;SDS011;11401;50.792;4.352;2022-10-12T02:40:40;7.32;;;3.40;;
22468;SDS011;11401;50.792;4.352;2022-10-12T02:43:20;10.85;;;3.63;;
22468;SDS011;11401;50.792;4.352;2022-10-12T02:46:14;6.85;;;3.47;;
22468;SDS011;11401;50.792;4.352;2022-10-12T02:48:42;5.90;;;3.75;;
22468;SDS011;11401;50.792;4.352;2022-10-12T02:51:11;4.35;;;3.20;;
22468;SDS011;11401;50.792;4.352;2022-10-12T02:53:38;4.78;;;3.10;;
22468;SDS011;11401;50.792;4.352;2022-10-12T02:56:07;4.72;;;3.33;;
22468;SDS011;11401;50.792;4.352;2022-10-12T02:58:37;6.45;;;3.67;;
22468;SDS011;11401;50.792;4.352;2022-10-12T03:01:06;12.50;;;3.97;;
22468;SDS011;11401;50.792;4.352;2022-10-12T03:03:33;6.88;;;3.25;;
22468;SDS011;11401;50.792;4.352;2022-10-12T03:06:00;6.30;;;3.63;;
22468;SDS011;11401;50.792;4.352;2022-10-12T03:08:27;3.80;;;3.40;;
22468;SDS011;11401;50.792;4.352;2022-10-12T03:10:54;5.72;;;3.70;;
22468;SDS011;11401;50.792;4.352;2022-10-12T03:13:25;6.20;;;3.80;;
22468;SDS011;11401;50.792;4.352;2022-10-12T03:15:52;5.13;;;3.47;;
22468;SDS011;11401;50.792;4.352;2022-10-12T03:18:19;7.93;;;3.22;;
22468;SDS011;11401;50.792;4.352;2022-10-12T03:20:46;5.75;;;3.17;;
22468;SDS011;11401;50.792;4.352;2022-10-12T03:23:14;4.82;;;3.83;;
22468;SDS011;11401;50.792;4.352;2022-10-12T03:25:40;4.15;;;3.33;;
22468;SDS011;11401;50.792;4.352;2022-10-12T03:28:07;6.03;;;3.70;;
22468;SDS011;11401;50.792;4.352;2022-10-12T03:30:34;8.38;;;3.42;;
22468;SDS011;11401;50.792;4.352;2022-10-12T03:33:01;6.00;;;3.30;;
22468;SDS011;11401;50.792;4.352;2022-10-12T03:35:28;4.72;;;3.20;;
22468;SDS011;11401;50.792;4.352;2022-10-12T03:37:55;5.65;;;3.70;;
22468;SDS011;11401;50.792;4.352;2022-10-12T03:40:22;8.90;;;3.63;;
22468;SDS011;11401;50.792;4.352;2022-10-12T03:42:49;3.90;;;3.50;;
22468;SDS011;11401;50.792;4.352;2022-10-12T03:45:15;5.22;;;3.13;;
22468;SDS011;11401;50.792;4.352;2022-10-12T03:47:42;6.38;;;3.75;;
22468;SDS011;11401;50.792;4.352;2022-10-12T03:50:09;5.57;;;3.95;;
22468;SDS011;11401;50.792;4.352;2022-10-12T03:52:36;4.82;;;3.35;;
22468;SDS011;11401;50.792;4.352;2022-10-12T03:55:03;6.82;;;3.70;;
22468;SDS011;11401;50.792;4.352;2022-10-12T03:57:30;5.90;;;3.92;;
22468;SDS011;11401;50.792;4.352;2022-10-12T03:59:57;5.60;;;3.67;;
22468;SDS011;11401;50.792;4.352;2022-10-12T04:02:24;6.43;;;3.50;;
22468;SDS011;11401;50.792;4.352;2022-10-12T04:04:50;5.57;;;3.45;;
22468;SDS011;11401;50.792;4.352;2022-10-12T04:07:17;3.97;;;3.30;;
22468;SDS011;11401;50.792;4.352;2022-10-12T04:09:44;4.18;;;2.92;;
22468;SDS011;11401;50.792;4.352;2022-10-12T04:12:11;8.60;;;3.80;;
22468;SDS011;11401;50.792;4.352;2022-10-12T04:14:39;5.28;;;3.70;;
22468;SDS011;11401;50.792;4.352;2022-10-12T04:17:06;5.22;;;3.05;;
22468;SDS011;11401;50.792;4.352;2022-10-12T04:19:33;3.92;;;2.95;;
22468;SDS011;11401;50.792;4.352;2022-10-12T04:21:59;8.82;;;3.15;;
22468;SDS011;11401;50.792;4.352;2022-10-12T04:24:26;6.13;;;3.28;;
22468;SDS011;11401;50.792;4.352;2022-10-12T04:26:53;4.30;;;3.30;;
22468;SDS011;11401;50.792;4.352;2022-10-12T04:29:20;8.55;;;3.70;;
22468;SDS011;11401;50.792;4.352;2022-10-12T04:31:47;5.70;;;3.17;;
22468;SDS011;11401;50.792;4.352;2022-10-12T04:34:14;6.45;;;3.28;;
22468;SDS011;11401;50.792;4.352;2022-10-12T04:36:41;5.57;;;3.90;;
22468;SDS011;11401;50.792;4.352;2022-10-12T04:39:08;3.42;;;2.97;;
22468;SDS011;11401;50.792;4.352;2022-10-12T04:41:35;4.43;;;3.13;;
22468;SDS011;11401;50.792;4.352;2022-10-12T04:44:02;8.02;;;3.58;;
22468;SDS011;11401;50.792;4.352;2022-10-12T04:46:29;7.35;;;3.28;;
22468;SDS011;11401;50.792;4.352;2022-10-12T04:48:56;5.78;;;3.20;;
22468;SDS011;11401;50.792;4.352;2022-10-12T04:51:23;5.38;;;3.63;;
22468;SDS011;11401;50.792;4.352;2022-10-12T04:53:50;4.85;;;3.22;;
22468;SDS011;11401;50.792;4.352;2022-10-12T04:56:17;6.47;;;3.13;;
22468;SDS011;11401;50.792;4.352;2022-10-12T04:58:44;5.95;;;3.45;;
22468;SDS011;11401;50.792;4.352;2022-10-12T05:01:11;4.70;;;3.35;;
22468;SDS011;11401;50.792;4.352;2022-10-12T05:03:38;4.32;;;2.95;;
22468;SDS011;11401;50.792;4.352;2022-10-12T05:06:07;3.30;;;3.00;;
22468;SDS011;11401;50.792;4.352;2022-10-12T05:08:34;5.38;;;3.60;;
22468;SDS011;11401;50.792;4.352;2022-10-12T05:11:01;5.90;;;3.50;;
22468;SDS011;11401;50.792;4.352;2022-10-12T05:13:28;4.93;;;3.03;;
22468;SDS011;11401;50.792;4.352;2022-10-12T05:15:55;7.20;;;4.18;;
22468;SDS011;11401;50.792;4.352;2022-10-12T05:18:23;6.28;;;4.00;;
22468;SDS011;11401;50.792;4.352;2022-10-12T05:20:49;7.20;;;3.67;;
22468;SDS011;11401;50.792;4.352;2022-10-12T05:23:22;5.60;;;3.22;;
22468;SDS011;11401;50.792;4.352;2022-10-12T05:25:49;4.38;;;3.15;;
22468;SDS011;11401;50.792;4.352;2022-10-12T05:28:16;10.98;;;4.30;;
22468;SDS011;11401;50.792;4.352;2022-10-12T05:30:43;6.25;;;3.65;;
22468;SDS011;11401;50.792;4.352;2022-10-12T05:33:10;6.88;;;4.03;;
22468;SDS011;11401;50.792;4.352;2022-10-12T05:35:37;6.97;;;3.58;;
22468;SDS011;11401;50.792;4.352;2022-10-12T05:38:07;8.98;;;4.82;;
22468;SDS011;11401;50.792;4.352;2022-10-12T05:40:33;6.45;;;4.65;;
22468;SDS011;11401;50.792;4.352;2022-10-12T05:43:01;7.35;;;4.72;;
22468;SDS011;11401;50.792;4.352;2022-10-12T05:45:27;9.07;;;5.35;;
22468;SDS011;11401;50.792;4.352;2022-10-12T05:47:54;7.07;;;4.95;;
22468;SDS011;11401;50.792;4.352;2022-10-12T05:50:21;9.85;;;6.75;;
22468;SDS011;11401;50.792;4.352;2022-10-12T05:52:48;13.65;;;6.55;;
22468;SDS011;11401;50.792;4.352;2022-10-12T05:55:15;11.13;;;6.20;;
22468;SDS011;11401;50.792;4.352;2022-10-12T05:57:42;11.05;;;5.93;;
22468;SDS011;11401;50.792;4.352;2022-10-12T06:00:16;11.02;;;5.75;;
22468;SDS011;11401;50.792;4.352;2022-10-12T06:02:43;10.25;;;6.15;;
22468;SDS011;11401;50.792;4.352;2022-10-12T06:05:10;7.85;;;5.75;;
22468;SDS011;11401;50.792;4.352;2022-10-12T06:07:36;12.27;;;6.45;;
22468;SDS011;11401;50.792;4.352;2022-10-12T06:10:04;8.43;;;5.25;;
22468;SDS011;11401;50.792;4.352;2022-10-12T06:12:31;8.25;;;6.03;;
22468;SDS011;11401;50.792;4.352;2022-10-12T06:14:58;9.23;;;5.93;;
22468;SDS011;11401;50.792;4.352;2022-10-12T06:17:25;11.80;;;5.72;;
22468;SDS011;11401;50.792;4.352;2022-10-12T06:19:52;9.80;;;6.30;;
22468;SDS011;11401;50.792;4.352;2022-10-12T06:22:19;7.45;;;5.40;;
22468;SDS011;11401;50.792;4.352;2022-10-12T06:24:46;12.95;;;5.50;;
22468;SDS011;11401;50.792;4.352;2022-10-12T06:27:13;10.75;;;5.90;;
22468;SDS011;11401;50.792;4.352;2022-10-12T06:29:40;10.05;;;5.85;;
22468;SDS011;11401;50.792;4.352;2022-10-12T06:32:07;8.52;;;5.25;;
22468;SDS011;11401;50.792;4.352;2022-10-12T06:34:33;7.82;;;5.18;;
22468;SDS011;11401;50.792;4.352;2022-10-12T06:37:00;11.40;;;6.22;;
22468;SDS011;11401;50.792;4.352;2022-10-12T06:39:27;8.80;;;5.70;;
22468;SDS011;11401;50.792;4.352;2022-10-12T06:41:54;8.77;;;5.53;;
22468;SDS011;11401;50.792;4.352;2022-10-12T06:44:22;11.15;;;5.40;;
22468;SDS011;11401;50.792;4.352;2022-10-12T06:46:49;6.60;;;5.28;;
22468;SDS011;11401;50.792;4.352;2022-10-12T06:49:16;9.15;;;5.40;;
22468;SDS011;11401;50.792;4.352;2022-10-12T06:51:43;8.77;;;5.40;;
22468;SDS011;11401;50.792;4.352;2022-10-12T06:54:10;13.93;;;5.55;;
22468;SDS011;11401;50.792;4.352;2022-10-12T06:56:37;10.43;;;5.53;;
22468;SDS011;11401;50.792;4.352;2022-10-12T06:59:05;9.40;;;5.50;;
22468;SDS011;11401;50.792;4.352;2022-10-12T07:01:32;9.80;;;5.22;;
22468;SDS011;11401;50.792;4.352;2022-10-12T07:04:01;9.40;;;5.32;;
22468;SDS011;11401;50.792;4.352;2022-10-12T07:06:28;12.07;;;5.70;;
22468;SDS011;11401;50.792;4.352;2022-10-12T07:08:55;11.88;;;5.63;;
22468;SDS011;11401;50.792;4.352;2022-10-12T07:11:22;9.13;;;6.05;;
22468;SDS011;11401;50.792;4.352;2022-10-12T07:13:49;8.95;;;6.50;;
22468;SDS011;11401;50.792;4.352;2022-10-12T07:16:16;11.55;;;6.78;;
22468;SDS011;11401;50.792;4.352;2022-10-12T07:18:43;10.50;;;5.30;;
22468;SDS011;11401;50.792;4.352;2022-10-12T07:21:10;14.23;;;6.05;;
22468;SDS011;11401;50.792;4.352;2022-10-12T07:23:37;9.25;;;4.88;;
22468;SDS011;11401;50.792;4.352;2022-10-12T07:26:11;13.63;;;5.75;;
22468;SDS011;11401;50.792;4.352;2022-10-12T07:28:37;8.48;;;5.45;;
22468;SDS011;11401;50.792;4.352;2022-10-12T07:31:05;12.25;;;5.35;;
22468;SDS011;11401;50.792;4.352;2022-10-12T07:33:33;9.55;;;5.47;;
22468;SDS011;11401;50.792;4.352;2022-10-12T07:36:01;11.77;;;6.18;;
22468;SDS011;11401;50.792;4.352;2022-10-12T07:38:39;17.88;;;6.82;;
22468;SDS011;11401;50.792;4.352;2022-10-12T07:41:10;14.73;;;5.90;;
22468;SDS011;11401;50.792;4.352;2022-10-12T07:43:38;11.77;;;5.68;;
22468;SDS011;11401;50.792;4.352;2022-10-12T07:46:05;9.75;;;4.90;;
22468;SDS011;11401;50.792;4.352;2022-10-12T07:48:33;11.63;;;5.82;;
22468;SDS011;11401;50.792;4.352;2022-10-12T07:51:03;8.55;;;5.30;;
22468;SDS011;11401;50.792;4.352;2022-10-12T07:53:32;10.88;;;5.15;;
22468;SDS011;11401;50.792;4.352;2022-10-12T07:56:01;10.68;;;5.45;;
22468;SDS011;11401;50.792;4.352;2022-10-12T07:58:30;13.18;;;5.78;;
22468;SDS011;11401;50.792;4.352;2022-10-12T08:01:04;11.65;;;6.03;;
22468;SDS011;11401;50.792;4.352;2022-10-12T08:03:32;7.40;;;4.85;;
22468;SDS011;11401;50.792;4.352;2022-10-12T08:05:59;14.07;;;5.03;;
22468;SDS011;11401;50.792;4.352;2022-10-12T08:08:34;7.60;;;5.13;;
22468;SDS011;11401;50.792;4.352;2022-10-12T08:11:01;7.78;;;5.38;;
22468;SDS011;11401;50.792;4.352;2022-10-12T08:13:29;13.00;;;5.75;;
22468;SDS011;11401;50.792;4.352;2022-10-12T08:15:56;9.70;;;5.45;;
22468;SDS011;11401;50.792;4.352;2022-10-12T08:18:23;10.88;;;5.35;;
22468;SDS011;11401;50.792;4.352;2022-10-12T08:20:50;11.15;;;5.25;;
22468;SDS011;11401;50.792;4.352;2022-10-12T08:23:17;10.50;;;6.00;;
22468;SDS011;11401;50.792;4.352;2022-10-12T08:25:54;14.18;;;6.57;;
22468;SDS011;11401;50.792;4.352;2022-10-12T08:28:23;9.25;;;5.80;;
22468;SDS011;11401;50.792;4.352;2022-10-12T08:30:50;11.43;;;5.30;;
22468;SDS011;11401;50.792;4.352;2022-10-12T08:33:17;12.32;;;5.90;;
22468;SDS011;11401;50.792;4.352;2022-10-12T08:35:45;13.75;;;6.22;;
22468;SDS011;11401;50.792;4.352;2022-10-12T08:38:13;12.55;;;5.40;;
22468;SDS011;11401;50.792;4.352;2022-10-12T08:40:45;13.65;;;5.72;;
22468;SDS011;11401;50.792;4.352;2022-10-12T08:46:03;14.73;;;5.03;;
22468;SDS011;11401;50.792;4.352;2022-10-12T08:48:49;13.25;;;5.43;;
22468;SDS011;11401;50.792;4.352;2022-10-12T08:51:20;11.63;;;5.47;;
22468;SDS011;11401;50.792;4.352;2022-10-12T08:56:37;11.20;;;5.22;;
22468;SDS011;11401;50.792;4.352;2022-10-12T08:59:13;10.75;;;5.45;;
22468;SDS011;11401;50.792;4.352;2022-10-12T09:04:40;10.27;;;5.22;;
22468;SDS011;11401;50.792;4.352;2022-10-12T09:07:34;8.23;;;4.95;;
22468;SDS011;11401;50.792;4.352;2022-10-12T09:15:52;9.48;;;5.25;;
22468;SDS011;11401;50.792;4.352;2022-10-12T09:18:35;10.48;;;4.88;;
22468;SDS011;11401;50.792;4.352;2022-10-12T09:21:07;7.88;;;4.47;;
22468;SDS011;11401;50.792;4.352;2022-10-12T09:23:41;11.90;;;5.53;;
22468;SDS011;11401;50.792;4.352;2022-10-12T09:28:53;6.57;;;4.47;;
22468;SDS011;11401;50.792;4.352;2022-10-12T09:31:37;12.27;;;5.00;;
22468;SDS011;11401;50.792;4.352;2022-10-12T09:34:25;8.23;;;4.93;;
22468;SDS011;11401;50.792;4.352;2022-10-12T09:36:52;9.68;;;4.75;;
22468;SDS011;11401;50.792;4.352;2022-10-12T09:39:22;11.95;;;4.35;;
22468;SDS011;11401;50.792;4.352;2022-10-12T09:42:10;9.38;;;4.38;;
22468;SDS011;11401;50.792;4.352;2022-10-12T09:49:58;11.75;;;4.82;;
22468;SDS011;11401;50.792;4.352;2022-10-12T09:52:28;10.75;;;4.68;;
22468;SDS011;11401;50.792;4.352;2022-10-12T09:55:04;12.10;;;4.70;;
22468;SDS011;11401;50.792;4.352;2022-10-12T09:57:50;10.30;;;4.07;;
22468;SDS011;11401;50.792;4.352;2022-10-12T10:00:24;21.42;;;6.38;;
22468;SDS011;11401;50.792;4.352;2022-10-12T10:02:53;16.73;;;5.75;;
22468;SDS011;11401;50.792;4.352;2022-10-12T10:05:28;7.63;;;4.05;;
22468;SDS011;11401;50.792;4.352;2022-10-12T10:08:16;12.95;;;4.60;;
22468;SDS011;11401;50.792;4.352;2022-10-12T10:10:48;10.95;;;5.22;;
22468;SDS011;11401;50.792;4.352;2022-10-12T10:13:18;12.00;;;4.78;;
22468;SDS011;11401;50.792;4.352;2022-10-12T10:15:50;14.65;;;4.78;;
22468;SDS011;11401;50.792;4.352;2022-10-12T10:18:32;14.30;;;4.45;;
22468;SDS011;11401;50.792;4.352;2022-10-12T10:21:03;9.27;;;4.85;;
22468;SDS011;11401;50.792;4.352;2022-10-12T10:23:42;9.25;;;4.07;;
22468;SDS011;11401;50.792;4.352;2022-10-12T10:26:19;13.23;;;4.82;;
22468;SDS011;11401;50.792;4.352;2022-10-12T10:28:48;7.60;;;3.75;;
22468;SDS011;11401;50.792;4.352;2022-10-12T10:31:20;6.47;;;3.67;;
22468;SDS011;11401;50.792;4.352;2022-10-12T10:36:44;13.73;;;4.68;;
22468;SDS011;11401;50.792;4.352;2022-10-12T10:39:19;8.88;;;4.05;;
22468;SDS011;11401;50.792;4.352;2022-10-12T10:41:49;11.82;;;4.50;;
22468;SDS011;11401;50.792;4.352;2022-10-12T10:44:28;7.60;;;4.05;;
22468;SDS011;11401;50.792;4.352;2022-10-12T10:46:58;11.88;;;4.20;;
22468;SDS011;11401;50.792;4.352;2022-10-12T10:52:18;8.55;;;4.40;;
22468;SDS011;11401;50.792;4.352;2022-10-12T11:00:28;6.30;;;4.03;;
22468;SDS011;11401;50.792;4.352;2022-10-12T11:03:13;11.00;;;4.50;;
22468;SDS011;11401;50.792;4.352;2022-10-12T11:06:02;6.72;;;3.83;;
22468;SDS011;11401;50.792;4.352;2022-10-12T11:08:50;10.02;;;4.20;;
22468;SDS011;11401;50.792;4.352;2022-10-12T11:11:25;6.90;;;3.30;;
22468;SDS011;11401;50.792;4.352;2022-10-12T11:13:55;9.77;;;3.90;;
22468;SDS011;11401;50.792;4.352;2022-10-12T11:16:36;7.45;;;3.83;;
22468;SDS011;11401;50.792;4.352;2022-10-12T11:24:52;8.25;;;4.18;;
22468;SDS011;11401;50.792;4.352;2022-10-12T11:27:34;9.98;;;3.70;;
22468;SDS011;11401;50.792;4.352;2022-10-12T11:30:05;7.32;;;3.70;;
22468;SDS011;11401;50.792;4.352;2022-10-12T11:35:31;6.75;;;4.38;;
22468;SDS011;11401;50.792;4.352;2022-10-12T11:38:08;9.13;;;4.47;;
22468;SDS011;11401;50.792;4.352;2022-10-12T11:40:59;7.95;;;3.88;;
22468;SDS011;11401;50.792;4.352;2022-10-12T11:43:49;8.68;;;4.07;;
22468;SDS011;11401;50.792;4.352;2022-10-12T11:46:22;9.52;;;4.00;;
22468;SDS011;11401;50.792;4.352;2022-10-12T11:49:12;7.80;;;3.55;;
22468;SDS011;11401;50.792;4.352;2022-10-12T11:52:00;6.38;;;3.63;;
22468;SDS011;11401;50.792;4.352;2022-10-12T11:54:41;8.10;;;3.78;;
22468;SDS011;11401;50.792;4.352;2022-10-12T11:57:15;7.15;;;4.03;;
22468;SDS011;11401;50.792;4.352;2022-10-12T11:59:58;4.63;;;3.45;;
22468;SDS011;11401;50.792;4.352;2022-10-12T12:02:38;6.68;;;3.13;;
22468;SDS011;11401;50.792;4.352;2022-10-12T12:05:12;8.43;;;4.10;;
22468;SDS011;11401;50.792;4.352;2022-10-12T12:07:52;5.15;;;3.40;;
22468;SDS011;11401;50.792;4.352;2022-10-12T12:18:14;6.05;;;3.40;;
22468;SDS011;11401;50.792;4.352;2022-10-12T12:36:42;4.68;;;2.88;;
22468;SDS011;11401;50.792;4.352;2022-10-12T12:39:24;7.90;;;3.08;;
22468;SDS011;11401;50.792;4.352;2022-10-12T12:41:59;3.28;;;2.83;;
22468;SDS011;11401;50.792;4.352;2022-10-12T12:49:53;4.40;;;2.85;;
22468;SDS011;11401;50.792;4.352;2022-10-12T12:52:41;5.90;;;2.88;;
22468;SDS011;11401;50.792;4.352;2022-10-12T13:03:32;6.35;;;2.88;;
22468;SDS011;11401;50.792;4.352;2022-10-12T13:14:35;2.65;;;2.45;;
22468;SDS011;11401;50.792;4.352;2022-10-12T13:20:18;7.15;;;3.35;;
22468;SDS011;11401;50.792;4.352;2022-10-12T13:22:52;3.15;;;2.45;;
22468;SDS011;11401;50.792;4.352;2022-10-12T13:25:31;5.72;;;3.25;;
22468;SDS011;11401;50.792;4.352;2022-10-12T13:28:09;5.03;;;2.72;;
22468;SDS011;11401;50.792;4.352;2022-10-12T13:33:33;3.65;;;2.53;;
22468;SDS011;11401;50.792;4.352;2022-10-12T13:38:42;6.18;;;2.80;;
22468;SDS011;11401;50.792;4.352;2022-10-12T13:43:50;6.45;;;3.10;;
22468;SDS011;11401;50.792;4.352;2022-10-12T13:49:19;6.45;;;3.00;;
22468;SDS011;11401;50.792;4.352;2022-10-12T13:51:52;6.55;;;3.13;;
22468;SDS011;11401;50.792;4.352;2022-10-12T13:54:34;7.55;;;2.95;;
22468;SDS011;11401;50.792;4.352;2022-10-12T14:02:42;6.15;;;2.33;;
22468;SDS011;11401;50.792;4.352;2022-10-12T14:05:20;6.88;;;3.00;;
22468;SDS011;11401;50.792;4.352;2022-10-12T14:07:50;4.70;;;2.92;;
22468;SDS011;11401;50.792;4.352;2022-10-12T14:10:20;7.55;;;2.75;;
22468;SDS011;11401;50.792;4.352;2022-10-12T14:12:55;6.95;;;2.58;;
22468;SDS011;11401;50.792;4.352;2022-10-12T14:15:24;4.07;;;2.42;;
22468;SDS011;11401;50.792;4.352;2022-10-12T14:17:53;5.63;;;2.92;;
22468;SDS011;11401;50.792;4.352;2022-10-12T14:22:58;5.88;;;2.20;;
22468;SDS011;11401;50.792;4.352;2022-10-12T14:25:27;5.18;;;2.58;;
22468;SDS011;11401;50.792;4.352;2022-10-12T14:27:57;5.85;;;2.47;;
22468;SDS011;11401;50.792;4.352;2022-10-12T14:30:34;4.13;;;2.58;;
22468;SDS011;11401;50.792;4.352;2022-10-12T14:35:40;5.93;;;3.08;;
22468;SDS011;11401;50.792;4.352;2022-10-12T14:44:11;2.85;;;2.15;;
22468;SDS011;11401;50.792;4.352;2022-10-12T14:46:42;4.15;;;2.45;;
22468;SDS011;11401;50.792;4.352;2022-10-12T14:49:24;6.38;;;3.50;;
22468;SDS011;11401;50.792;4.352;2022-10-12T14:51:57;3.70;;;2.65;;
22468;SDS011;11401;50.792;4.352;2022-10-12T14:54:25;3.97;;;2.38;;
22468;SDS011;11401;50.792;4.352;2022-10-12T14:56:52;5.22;;;2.70;;
22468;SDS011;11401;50.792;4.352;2022-10-12T14:59:19;6.93;;;3.10;;
22468;SDS011;11401;50.792;4.352;2022-10-12T15:01:46;8.93;;;3.30;;
22468;SDS011;11401;50.792;4.352;2022-10-12T15:04:16;3.47;;;2.55;;
22468;SDS011;11401;50.792;4.352;2022-10-12T15:06:43;4.35;;;2.58;;
22468;SDS011;11401;50.792;4.352;2022-10-12T15:09:16;2.95;;;2.22;;
22468;SDS011;11401;50.792;4.352;2022-10-12T15:11:43;2.83;;;2.30;;
22468;SDS011;11401;50.792;4.352;2022-10-12T15:14:10;7.65;;;2.95;;
22468;SDS011;11401;50.792;4.352;2022-10-12T15:16:37;2.63;;;2.42;;
22468;SDS011;11401;50.792;4.352;2022-10-12T15:19:04;4.03;;;2.80;;
22468;SDS011;11401;50.792;4.352;2022-10-12T15:21:31;2.95;;;2.60;;
22468;SDS011;11401;50.792;4.352;2022-10-12T15:23:58;5.75;;;3.35;;
22468;SDS011;11401;50.792;4.352;2022-10-12T15:26:25;6.28;;;2.88;;
22468;SDS011;11401;50.792;4.352;2022-10-12T15:28:52;4.57;;;2.90;;
22468;SDS011;11401;50.792;4.352;2022-10-12T15:31:19;2.72;;;2.20;;
22468;SDS011;11401;50.792;4.352;2022-10-12T15:33:46;3.75;;;2.58;;
22468;SDS011;11401;50.792;4.352;2022-10-12T15:36:13;3.75;;;2.50;;
22468;SDS011;11401;50.792;4.352;2022-10-12T15:38:40;5.03;;;2.67;;
22468;SDS011;11401;50.792;4.352;2022-10-12T15:41:16;6.93;;;2.58;;
22468;SDS011;11401;50.792;4.352;2022-10-12T15:43:45;7.75;;;3.00;;
22468;SDS011;11401;50.792;4.352;2022-10-12T15:46:13;8.52;;;3.40;;
22468;SDS011;11401;50.792;4.352;2022-10-12T15:48:40;4.05;;;3.00;;
22468;SDS011;11401;50.792;4.352;2022-10-12T15:51:08;5.70;;;2.70;;
22468;SDS011;11401;50.792;4.352;2022-10-12T15:53:42;7.18;;;3.35;;
22468;SDS011;11401;50.792;4.352;2022-10-12T15:56:10;4.47;;;3.15;;
22468;SDS011;11401;50.792;4.352;2022-10-12T15:58:39;10.65;;;4.07;;
22468;SDS011;11401;50.792;4.352;2022-10-12T16:01:14;5.65;;;3.65;;
22468;SDS011;11401;50.792;4.352;2022-10-12T16:03:43;11.85;;;3.60;;
22468;SDS011;11401;50.792;4.352;2022-10-12T16:06:10;5.18;;;3.58;;
22468;SDS011;11401;50.792;4.352;2022-10-12T16:08:37;6.20;;;3.10;;
22468;SDS011;11401;50.792;4.352;2022-10-12T16:11:05;5.18;;;3.53;;
22468;SDS011;11401;50.792;4.352;2022-10-12T16:13:34;4.30;;;2.95;;
22468;SDS011;11401;50.792;4.352;2022-10-12T16:16:09;7.82;;;3.20;;
22468;SDS011;11401;50.792;4.352;2022-10-12T16:18:37;8.00;;;4.43;;
22468;SDS011;11401;50.792;4.352;2022-10-12T16:21:04;7.03;;;3.47;;
22468;SDS011;11401;50.792;4.352;2022-10-12T16:23:33;7.75;;;3.90;;
22468;SDS011;11401;50.792;4.352;2022-10-12T16:26:03;6.70;;;3.50;;
22468;SDS011;11401;50.792;4.352;2022-10-12T16:28:31;7.00;;;3.58;;
22468;SDS011;11401;50.792;4.352;2022-10-12T16:30:59;10.02;;;5.68;;
22468;SDS011;11401;50.792;4.352;2022-10-12T16:33:26;9.98;;;4.40;;
22468;SDS011;11401;50.792;4.352;2022-10-12T16:35:53;6.70;;;3.85;;
22468;SDS011;11401;50.792;4.352;2022-10-12T16:38:20;7.90;;;4.03;;
22468;SDS011;11401;50.792;4.352;2022-10-12T16:40:47;9.63;;;4.72;;
22468;SDS011;11401;50.792;4.352;2022-10-12T16:43:15;13.18;;;5.55;;
22468;SDS011;11401;50.792;4.352;2022-10-12T16:45:43;13.05;;;5.38;;
22468;SDS011;11401;50.792;4.352;2022-10-12T16:48:10;11.40;;;4.40;;
22468;SDS011;11401;50.792;4.352;2022-10-12T16:50:37;8.80;;;4.20;;
22468;SDS011;11401;50.792;4.352;2022-10-12T16:53:06;6.43;;;3.83;;
22468;SDS011;11401;50.792;4.352;2022-10-12T16:55:35;8.15;;;4.18;;
22468;SDS011;11401;50.792;4.352;2022-10-12T16:58:03;4.93;;;3.75;;
22468;SDS011;11401;50.792;4.352;2022-10-12T17:00:30;5.68;;;4.05;;
22468;SDS011;11401;50.792;4.352;2022-10-12T17:02:57;7.25;;;4.22;;
22468;SDS011;11401;50.792;4.352;2022-10-12T17:05:24;8.48;;;4.20;;
22468;SDS011;11401;50.792;4.352;2022-10-12T17:07:50;9.25;;;4.07;;
22468;SDS011;11401;50.792;4.352;2022-10-12T17:10:18;7.90;;;4.03;;
22468;SDS011;11401;50.792;4.352;2022-10-12T17:12:44;9.20;;;3.92;;
22468;SDS011;11401;50.792;4.352;2022-10-12T17:15:11;5.88;;;4.72;;
22468;SDS011;11401;50.792;4.352;2022-10-12T17:17:38;8.60;;;3.92;;
22468;SDS011;11401;50.792;4.352;2022-10-12T17:20:05;7.07;;;4.10;;
22468;SDS011;11401;50.792;4.352;2022-10-12T17:22:32;6.53;;;4.30;;
22468;SDS011;11401;50.792;4.352;2022-10-12T17:25:00;6.95;;;4.25;;
22468;SDS011;11401;50.792;4.352;2022-10-12T17:27:27;7.72;;;5.15;;